Meteo Giornale » Osservazioni meteo Italia » Reggio Calabria

ore: 05:50 - Osservazioni Meteo Reggio Calabria
Lat. 38° 4' N Lon. 15° 39' E Alt. 11 metri s.l.m.

sereno Europe/Rome

24 °C

Sereno

Temp. 24 Ore

24 °C

37 °C

Nord

5.5 Km/h

Dew point 17 °C

Umidità 64 %

Visibilità  10 Km

Il sole sorge alle ore 06:13

Il sole tramonta alle ore 19:48

Data e Ora Cielo e Fenomeni T °C DP °C Um. % Pres. hPa Vis. km Vento km/h
Oggi h: 05:50 sereno Sereno 24 17 64 1012 10 N 5.5
Oggi h: 05:20 sereno Sereno 24 16 60 1012 10 N 3.7
Oggi h: 04:50 sereno Sereno 26 17 57 1012 10 N 3.7
Oggi h: 04:20 sereno Sereno 25 17 61 1012 10 N 5.5
Oggi h: 03:50 sereno Sereno 25 17 61 1012 10 N 5.5
Oggi h: 03:20 sereno Sereno 25 17 61 1012 10 E 7.4
Oggi h: 02:50 sereno Sereno 25 17 61 1013 10 N 5.5
Oggi h: 02:20 sereno Sereno 26 17 57 1013 10 N 5.5
Oggi h: 01:50 sereno Sereno 26 17 57 1013 10 N 5.5
Oggi h: 01:20 sereno Sereno 26 18 61 1013 10 N 5.5
Oggi h: 00:50 sereno Sereno 26 18 61 1013 10 E 7.4
Oggi h: 00:20 sereno Sereno 26 19 65 1013 10 N 3.7
Ieri h: 23:50 sereno Sereno 26 19 65 1013 10 E/NE 7.4
Ieri h: 23:20 sereno Sereno 26 19 65 1014 10 NE 9.3
Ieri h: 22:50 sereno Sereno 26 19 65 1014 10 E/NE 9.3
Ieri h: 22:20 sereno Sereno 27 20 65 1014 10 N 3.7
Ieri h: 21:50 sereno Sereno 27 21 69 1014 10 N 5.5
Ieri h: 21:20 sereno Sereno 29 21 62 1014 10 N 3.7
Ieri h: 20:50 sereno Sereno 28 23 74 1014 10 N 5.5
Ieri h: 20:20 sereno Sereno 28 23 74 1013 10 N 5.5
Ieri h: 19:50 sereno Sereno 28 24 78 1013 10 S/SO 13
Ieri h: 19:20 sereno Sereno 29 25 79 1013 10 S/SO 11.1
Ieri h: 18:50 sereno Sereno 29 25 79 1013 10 S/SO 9.3
Ieri h: 18:20 sereno Sereno 30 25 74 1013 10 S/SO 9.3
Ieri h: 17:50 sereno Sereno 30 25 74 1013 10 SO 9.3
Ieri h: 17:20 sereno Sereno 31 25 70 1013 10 SO 9.3
Ieri h: 16:50 sereno Sereno 31 25 70 1013 10 SO 13
Ieri h: 16:20 sereno Sereno 31 24 66 1013 10 S/SO 14.8
Ieri h: 15:50 sereno Sereno 31 25 70 1013 10 S/SO 11.1
Ieri h: 15:20 sereno Sereno 31 25 70 1013 10 S/SO 13
Ieri h: 14:50 poco_nuvoloso Poco Nuvoloso 31 25 70 1014 10 SO 13
Ieri h: 14:20 sereno Sereno 32 25 66 1014 10 SO 11.1
Ieri h: 13:50 sereno Sereno 32 25 66 1014 10 SO 13
Ieri h: 13:20 sereno Sereno 34 21 46 1014 10 N 14.8
Ieri h: 12:50 sereno Sereno 37 14 25 1013 10 N 20.3
Ieri h: 12:20 poco_nuvoloso Poco Nuvoloso 36 15 28 1013 10 N 20.3
Ieri h: 11:50 poco_nuvoloso Poco Nuvoloso 36 16 30 1013 10 N 18.5
Ieri h: 11:20 sereno Sereno 35 16 32 1013 10 N 20.3
Ieri h: 10:50 sereno Sereno 34 16 34 1013 10 N/NO 20.3
Ieri h: 10:20 sereno Sereno 34 18 38 1013 10 N 18.5
Ieri h: 09:50 sereno Sereno 32 20 49 1013 10 N 16.7
Ieri h: 09:20 sereno Sereno 32 20 49 1013 10 N 16.7
Ieri h: 08:50 sereno Sereno 32 16 38 1013 10 N/NO 13
Ieri h: 08:20 sereno Sereno 30 19 51 1013 10 N 11.1
Ieri h: 07:50 sereno Sereno 29 18 51 1013 10 N/NE 7.4
Ieri h: 07:20 sereno Sereno 27 17 54 1013 10 N 9.3
Ieri h: 06:50 sereno Sereno 25 16 57 1013 10 E/NE 7.4